Terminal Aerodrome Forecast
Issued by NWS

Current Version | Previous Version | Text Only | Print | Product List | Glossary On
Versions: 1 2 3 4 5 6 7 8 9 10 11 12 13
000
FTUS43 KPAH 250500
TAFOWB
TAF
KOWB 250520Z 2506/2606 20012G18KT P6SM SCT050 OVC100
     FM251000 26010KT P6SM VCSH BKN050 OVC100
      TEMPO 2510/2514 3SM TSRA BR OVC025CB
     FM251400 30012G18KT P6SM BKN015
     FM251700 32012G20KT P6SM SKC
     FM260000 VRB03KT P6SM SKC=

USA.gov is the U.S. government's official web portal to all federal, state and local government web resources and services.